createdAt,value
2023-05-10T00:01:53.282Z,3.10
2023-05-10T00:06:46.963Z,3.15
2023-05-10T00:09:13.613Z,3.22
2023-05-10T00:11:40.279Z,3.13
2023-05-10T00:14:06.898Z,3.20
2023-05-10T00:16:33.552Z,3.53
2023-05-10T00:19:00.264Z,2.80
2023-05-10T00:21:26.971Z,3.17
2023-05-10T00:23:53.588Z,2.80
2023-05-10T00:26:20.256Z,3.25
2023-05-10T00:28:52.133Z,3.33
2023-05-10T00:31:18.780Z,2.90
2023-05-10T00:33:45.684Z,2.80
2023-05-10T00:41:08.511Z,3.13
2023-05-10T00:43:36.946Z,2.85
2023-05-10T00:48:32.782Z,3.15
2023-05-10T00:50:59.601Z,3.15
2023-05-10T00:53:26.692Z,3.10
2023-05-10T00:55:53.430Z,3.50
2023-05-10T00:58:20.070Z,3.05
2023-05-10T01:03:15.494Z,3.00
2023-05-10T01:05:42.292Z,3.00
2023-05-10T01:08:09.893Z,3.00
2023-05-10T01:10:36.769Z,3.08
2023-05-10T01:13:04.288Z,3.05
2023-05-10T01:15:31.475Z,3.10
2023-05-10T01:17:58.101Z,2.88
2023-05-10T01:20:25.213Z,3.17
2023-05-10T01:22:57.940Z,3.38
2023-05-10T01:25:38.453Z,3.60
2023-05-10T01:28:11.157Z,3.75
2023-05-10T01:30:41.584Z,3.03
2023-05-10T01:33:11.601Z,3.08
2023-05-10T01:35:41.358Z,3.30
2023-05-10T01:38:08.226Z,3.30
2023-05-10T01:40:48.065Z,2.83
2023-05-10T01:43:20.008Z,3.10
2023-05-10T01:46:16.037Z,3.15
2023-05-10T01:48:48.374Z,2.95
2023-05-10T01:51:20.558Z,3.10
2023-05-10T01:53:48.994Z,2.92
2023-05-10T01:56:17.226Z,3.03
2023-05-10T01:58:47.168Z,2.90
2023-05-10T02:03:45.106Z,3.17
2023-05-10T02:08:42.312Z,2.88
2023-05-10T02:13:40.557Z,3.00
2023-05-10T02:16:07.838Z,3.00
2023-05-10T02:18:35.283Z,3.17
2023-05-10T02:21:03.049Z,3.30
2023-05-10T02:23:30.667Z,2.97
2023-05-10T02:25:58.047Z,3.38
2023-05-10T02:28:26.217Z,3.20
2023-05-10T02:30:53.436Z,3.30
2023-05-10T02:33:21.093Z,3.40
2023-05-10T02:35:48.046Z,3.65
2023-05-10T02:38:15.694Z,3.28
2023-05-10T02:40:42.613Z,3.15
2023-05-10T02:43:14.567Z,3.13
2023-05-10T02:45:42.248Z,3.38
2023-05-10T02:50:38.008Z,3.17
2023-05-10T02:53:12.060Z,3.35
2023-05-10T02:55:40.105Z,3.05
2023-05-10T02:58:06.961Z,3.25
2023-05-10T03:03:01.609Z,3.47
2023-05-10T03:05:28.812Z,3.13
2023-05-10T03:10:28.249Z,3.15
2023-05-10T03:13:14.714Z,3.08
2023-05-10T03:16:00.417Z,3.20
2023-05-10T03:18:35.447Z,3.22
2023-05-10T03:21:04.272Z,3.15
2023-05-10T03:23:35.264Z,3.40
2023-05-10T03:26:02.792Z,3.30
2023-05-10T03:28:31.054Z,3.50
2023-05-10T03:33:25.705Z,3.40
2023-05-10T03:38:19.370Z,3.40
2023-05-10T03:40:46.767Z,3.50
2023-05-10T03:45:41.234Z,3.22
2023-05-10T03:48:07.867Z,3.45
2023-05-10T03:57:57.159Z,4.05
2023-05-10T04:02:54.199Z,3.22
2023-05-10T04:05:20.966Z,3.60
2023-05-10T04:10:15.669Z,3.80
2023-05-10T04:12:42.857Z,3.55
2023-05-10T04:15:09.711Z,3.25
2023-05-10T04:22:31.619Z,3.58
2023-05-10T04:24:58.284Z,3.58
2023-05-10T04:27:24.910Z,3.88
2023-05-10T04:29:52.081Z,3.65
2023-05-10T04:32:18.863Z,3.50
2023-05-10T04:34:45.573Z,3.70
2023-05-10T04:37:12.389Z,4.05
2023-05-10T04:42:08.356Z,3.80
2023-05-10T04:47:03.360Z,3.95
2023-05-10T04:49:30.756Z,4.18
2023-05-10T04:54:24.352Z,4.28
2023-05-10T04:56:50.994Z,3.80
2023-05-10T04:59:17.874Z,4.00
2023-05-10T05:01:44.600Z,3.85
2023-05-10T05:04:11.307Z,4.57
2023-05-10T05:09:04.911Z,4.55
2023-05-10T05:11:32.112Z,4.05
2023-05-10T05:18:54.557Z,4.28
2023-05-10T05:21:21.518Z,4.00
2023-05-10T05:23:48.454Z,4.32
2023-05-10T05:26:16.298Z,3.90
2023-05-10T05:28:43.297Z,3.95
2023-05-10T05:31:10.382Z,3.92
2023-05-10T05:33:37.498Z,3.97
2023-05-10T05:36:05.303Z,4.25
2023-05-10T05:41:01.365Z,4.55
2023-05-10T05:43:28.549Z,4.60
2023-05-10T05:45:55.393Z,4.07
2023-05-10T05:48:22.238Z,5.10
2023-05-10T05:50:48.981Z,4.40
2023-05-10T05:53:15.658Z,4.55
2023-05-10T05:55:51.697Z,4.43
2023-05-10T05:58:18.355Z,4.32
2023-05-10T06:00:44.943Z,4.28
2023-05-10T06:03:11.834Z,4.43
2023-05-10T06:05:38.631Z,5.00
2023-05-10T06:10:32.222Z,4.60
2023-05-10T06:12:58.948Z,4.45
2023-05-10T06:15:25.855Z,4.30
2023-05-10T06:17:52.574Z,4.18
2023-05-10T06:20:19.325Z,4.35
2023-05-10T06:22:46.000Z,4.63
2023-05-10T06:25:12.799Z,3.90
2023-05-10T06:27:39.415Z,4.63
2023-05-10T06:30:12.983Z,4.35
2023-05-10T06:32:40.252Z,4.50
2023-05-10T06:37:35.267Z,4.82
2023-05-10T06:42:32.720Z,4.03
2023-05-10T06:47:29.365Z,4.57
2023-05-10T06:49:56.934Z,4.32
2023-05-10T06:52:24.287Z,4.78
2023-05-10T06:54:51.040Z,4.57
2023-05-10T06:57:30.382Z,4.88
2023-05-10T06:59:58.420Z,4.43
2023-05-10T07:02:25.133Z,4.85
2023-05-10T07:04:53.139Z,4.60
2023-05-10T07:07:20.134Z,4.30
2023-05-10T07:09:46.887Z,4.85
2023-05-10T07:12:15.374Z,4.55
2023-05-10T07:14:42.521Z,4.20
2023-05-10T07:17:09.475Z,4.90
2023-05-10T07:19:36.529Z,4.63
2023-05-10T07:22:03.280Z,4.40
2023-05-10T07:24:30.038Z,4.53
2023-05-10T07:26:56.663Z,4.10
2023-05-10T07:29:23.333Z,3.90
2023-05-10T07:31:50.012Z,4.50
2023-05-10T07:36:43.784Z,4.57
2023-05-10T07:39:14.386Z,4.68
2023-05-10T07:41:43.207Z,3.85
2023-05-10T07:44:09.873Z,3.78
2023-05-10T07:49:03.407Z,3.28
2023-05-10T07:51:30.180Z,3.40
2023-05-10T07:56:26.468Z,3.20
2023-05-10T07:58:53.178Z,4.82
2023-05-10T08:01:19.896Z,3.20
2023-05-10T08:03:46.881Z,3.45
2023-05-10T08:06:14.059Z,3.53
2023-05-10T08:08:41.207Z,3.58
2023-05-10T08:11:07.899Z,3.30
2023-05-10T08:16:18.896Z,3.47
2023-05-10T08:18:46.679Z,3.35
2023-05-10T08:23:41.888Z,3.20
2023-05-10T08:26:08.541Z,2.70
2023-05-10T08:28:35.229Z,2.50
2023-05-10T08:31:01.970Z,2.63
2023-05-10T08:33:29.163Z,2.30
2023-05-10T08:35:55.838Z,1.90
2023-05-10T08:38:22.539Z,1.50
2023-05-10T08:40:49.484Z,1.17
2023-05-10T08:43:16.624Z,1.65
2023-05-10T08:45:44.503Z,1.10
2023-05-10T08:48:11.561Z,1.35
2023-05-10T08:50:38.922Z,1.30
2023-05-10T08:53:06.344Z,0.90
2023-05-10T08:58:01.417Z,0.90
2023-05-10T09:00:29.448Z,1.00
2023-05-10T09:05:22.992Z,1.00
2023-05-10T09:10:17.055Z,1.17
2023-05-10T09:12:45.262Z,1.20
2023-05-10T09:15:12.489Z,0.95
2023-05-10T09:17:42.765Z,0.82
2023-05-10T09:20:09.507Z,1.00
2023-05-10T09:27:39.802Z,1.02
2023-05-10T09:30:07.699Z,1.20
2023-05-10T09:35:16.292Z,1.00
2023-05-10T09:37:44.227Z,0.82
2023-05-10T09:40:15.262Z,1.00
2023-05-10T09:42:43.546Z,0.88
2023-05-10T09:45:10.334Z,0.82
2023-05-10T09:50:07.438Z,1.30
2023-05-10T09:52:52.807Z,1.00
2023-05-10T09:55:23.287Z,0.85
2023-05-10T09:57:50.373Z,1.20
2023-05-10T10:00:21.175Z,1.30
2023-05-10T10:02:49.311Z,1.10
2023-05-10T10:05:16.521Z,1.10
2023-05-10T10:10:13.359Z,1.10
2023-05-10T10:12:40.896Z,1.10
2023-05-10T10:15:08.501Z,1.15
2023-05-10T10:17:36.716Z,1.10
2023-05-10T10:20:03.894Z,0.90
2023-05-10T10:22:30.651Z,0.95
2023-05-10T10:24:57.328Z,1.00
2023-05-10T10:27:44.366Z,1.10
2023-05-10T10:30:11.215Z,1.10
2023-05-10T10:32:56.929Z,0.77
2023-05-10T10:35:23.643Z,1.50
2023-05-10T10:37:51.536Z,1.30
2023-05-10T10:40:28.778Z,1.08
2023-05-10T10:42:55.787Z,1.30
2023-05-10T10:45:23.011Z,1.38
2023-05-10T10:47:49.891Z,0.90
2023-05-10T10:50:19.657Z,1.10
2023-05-10T10:52:46.917Z,1.00
2023-05-10T10:55:13.900Z,1.13
2023-05-10T10:57:46.815Z,1.10
2023-05-10T11:00:22.845Z,1.00
2023-05-10T11:02:50.669Z,1.00
2023-05-10T11:05:29.699Z,0.98
2023-05-10T11:07:57.478Z,1.23
2023-05-10T11:10:24.703Z,0.70
2023-05-10T11:13:01.981Z,0.90
2023-05-10T11:15:36.182Z,0.95
2023-05-10T11:20:51.633Z,1.20
2023-05-10T11:23:19.182Z,0.93
2023-05-10T11:25:46.634Z,0.82
2023-05-10T11:28:13.545Z,0.93
2023-05-10T11:30:41.281Z,1.15
2023-05-10T11:35:43.681Z,0.57
2023-05-10T11:38:13.576Z,1.00
2023-05-10T11:40:41.013Z,0.60
2023-05-10T11:43:09.788Z,0.70
2023-05-10T11:45:36.792Z,0.90
2023-05-10T11:48:08.561Z,0.60
2023-05-10T11:55:38.158Z,1.17
2023-05-10T11:58:05.002Z,1.10
2023-05-10T12:02:59.988Z,1.20
2023-05-10T12:05:26.973Z,0.82
2023-05-10T12:12:54.550Z,0.82
2023-05-10T12:23:54.651Z,0.90
2023-05-10T12:30:08.832Z,1.10
2023-05-10T12:32:50.833Z,1.00
2023-05-10T12:35:28.697Z,0.95
2023-05-10T12:38:04.437Z,1.15
2023-05-10T12:40:37.230Z,1.20
2023-05-10T12:43:03.961Z,1.30
2023-05-10T12:45:31.890Z,1.30
2023-05-10T12:50:29.662Z,1.50
2023-05-10T12:58:00.544Z,1.10
2023-05-10T13:00:31.205Z,1.30
2023-05-10T13:02:57.859Z,1.40
2023-05-10T13:05:24.631Z,1.40
2023-05-10T13:12:45.653Z,1.50
2023-05-10T13:17:41.898Z,1.00
2023-05-10T13:20:08.781Z,1.70
2023-05-10T13:25:07.241Z,1.60
2023-05-10T13:27:34.134Z,1.40
2023-05-10T13:32:27.829Z,2.10
2023-05-10T13:34:54.589Z,2.10
2023-05-10T13:42:16.476Z,1.30
2023-05-10T13:44:43.240Z,1.35
2023-05-10T13:47:09.982Z,1.17
2023-05-10T13:49:36.630Z,1.40
2023-05-10T13:52:08.065Z,1.40
2023-05-10T13:57:06.048Z,1.60
2023-05-10T13:59:32.896Z,1.70
2023-05-10T14:02:00.038Z,2.05
2023-05-10T14:04:26.720Z,1.80
2023-05-10T14:06:54.154Z,1.95
2023-05-10T14:09:21.222Z,1.80
2023-05-10T14:11:47.961Z,1.67
2023-05-10T14:14:14.608Z,1.70
2023-05-10T14:19:13.240Z,1.80
2023-05-10T14:24:08.280Z,1.40
2023-05-10T14:26:35.727Z,1.30
2023-05-10T14:31:31.564Z,1.55
2023-05-10T14:33:58.956Z,1.73
2023-05-10T14:36:25.728Z,1.40
2023-05-10T14:38:55.264Z,1.40
2023-05-10T14:43:48.879Z,1.52
2023-05-10T14:48:42.526Z,1.27
2023-05-10T14:53:36.265Z,1.58
2023-05-10T14:56:03.982Z,1.40
2023-05-10T15:01:00.801Z,1.20
2023-05-10T15:03:28.474Z,1.60
2023-05-10T15:08:25.682Z,1.60
2023-05-10T15:10:52.958Z,1.55
2023-05-10T15:13:19.652Z,1.63
2023-05-10T15:15:46.302Z,1.50
2023-05-10T15:18:13.161Z,1.90
2023-05-10T15:20:39.882Z,1.50
2023-05-10T15:23:06.590Z,1.70
2023-05-10T15:33:00.289Z,1.60
2023-05-10T15:38:05.088Z,1.83
2023-05-10T15:40:34.700Z,1.90
2023-05-10T15:43:01.590Z,1.90
2023-05-10T15:45:28.456Z,1.85
2023-05-10T15:50:22.279Z,1.83
2023-05-10T15:55:17.081Z,2.55
2023-05-10T15:57:44.413Z,3.10
2023-05-10T16:00:11.846Z,2.00
2023-05-10T16:02:41.647Z,2.30
2023-05-10T16:10:08.180Z,1.98
2023-05-10T16:12:34.924Z,1.80
2023-05-10T16:15:01.594Z,1.70
2023-05-10T16:17:28.441Z,1.67
2023-05-10T16:19:55.168Z,1.60
2023-05-10T16:22:22.538Z,1.75
2023-05-10T16:24:49.282Z,1.40
2023-05-10T16:29:43.269Z,1.30
2023-05-10T16:32:09.960Z,1.40
2023-05-10T16:34:36.729Z,1.60
2023-05-10T16:37:03.432Z,1.42
2023-05-10T16:39:30.096Z,1.38
2023-05-10T16:44:25.848Z,1.52
2023-05-10T16:46:53.517Z,1.30
2023-05-10T16:49:23.743Z,1.30
2023-05-10T16:54:20.436Z,1.40
2023-05-10T16:56:47.061Z,1.55
2023-05-10T16:59:13.737Z,1.83
2023-05-10T17:01:40.421Z,1.88
2023-05-10T17:04:07.446Z,1.85
2023-05-10T17:06:35.901Z,1.95
2023-05-10T17:09:03.158Z,2.03
2023-05-10T17:11:30.187Z,2.33
2023-05-10T17:13:56.848Z,2.22
2023-05-10T17:16:23.699Z,2.30
2023-05-10T17:21:17.421Z,2.70
2023-05-10T17:23:44.108Z,2.63
2023-05-10T17:26:10.817Z,2.15
2023-05-10T17:33:31.290Z,1.50
2023-05-10T17:35:58.316Z,1.83
2023-05-10T17:38:25.064Z,1.65
2023-05-10T17:40:51.722Z,1.80
2023-05-10T17:43:18.397Z,1.50
2023-05-10T17:45:47.564Z,1.70
2023-05-10T17:48:14.398Z,1.50
2023-05-10T17:53:10.854Z,1.42
2023-05-10T17:55:41.520Z,1.77
2023-05-10T17:58:08.717Z,1.60
2023-05-10T18:03:29.835Z,2.55
2023-05-10T18:05:56.925Z,1.60
2023-05-10T18:08:27.189Z,1.80
2023-05-10T18:10:53.815Z,2.10
2023-05-10T18:13:21.124Z,2.42
2023-05-10T18:20:42.370Z,2.00
2023-05-10T18:23:09.018Z,2.10
2023-05-10T18:25:36.374Z,1.83
2023-05-10T18:28:03.138Z,2.15
2023-05-10T18:30:29.859Z,2.33
2023-05-10T18:32:57.628Z,2.63
2023-05-10T18:35:24.310Z,2.90
2023-05-10T18:37:50.964Z,2.47
2023-05-10T18:40:17.916Z,2.47
2023-05-10T18:42:47.133Z,2.00
2023-05-10T18:45:13.933Z,2.08
2023-05-10T18:47:40.640Z,2.30
2023-05-10T18:50:07.872Z,2.30
2023-05-10T18:57:30.419Z,2.33
2023-05-10T18:59:57.077Z,2.47
2023-05-10T19:02:25.475Z,3.00
2023-05-10T19:07:19.149Z,4.03
2023-05-10T19:12:12.792Z,3.63
2023-05-10T19:14:39.524Z,5.82
2023-05-10T19:17:08.950Z,13.32
2023-05-10T19:19:35.627Z,8.32
2023-05-10T19:22:03.012Z,4.88
2023-05-10T19:24:29.684Z,3.50
2023-05-10T19:26:58.059Z,3.20
2023-05-10T19:31:53.212Z,2.90
2023-05-10T19:34:20.448Z,2.58
2023-05-10T19:39:14.127Z,3.00
2023-05-10T19:41:40.848Z,3.20
2023-05-10T19:44:07.741Z,2.60
2023-05-10T19:46:34.748Z,2.42
2023-05-10T19:49:01.478Z,2.50
2023-05-10T19:51:28.277Z,2.45
2023-05-10T19:53:54.944Z,2.30
2023-05-10T19:56:24.442Z,2.60
2023-05-10T19:58:51.466Z,2.40
2023-05-10T20:01:18.321Z,2.60
2023-05-10T20:03:45.040Z,2.50
2023-05-10T20:08:40.561Z,2.78
2023-05-10T20:11:10.354Z,3.15
2023-05-10T20:13:37.147Z,3.55
2023-05-10T20:18:32.355Z,2.83
2023-05-10T20:21:05.177Z,3.20
2023-05-10T20:23:32.005Z,3.17
2023-05-10T20:25:58.760Z,3.10
2023-05-10T20:28:26.389Z,2.50
2023-05-10T20:30:55.061Z,2.90
2023-05-10T20:33:25.252Z,2.60
2023-05-10T20:35:52.681Z,2.90
2023-05-10T20:38:19.327Z,2.50
2023-05-10T20:43:21.597Z,2.50
2023-05-10T20:45:51.741Z,2.58
2023-05-10T20:50:45.897Z,2.50
2023-05-10T20:55:41.370Z,2.45
2023-05-10T21:00:35.127Z,2.17
2023-05-10T21:03:02.741Z,2.60
2023-05-10T21:05:29.629Z,2.22
2023-05-10T21:07:56.380Z,2.50
2023-05-10T21:12:56.695Z,2.20
2023-05-10T21:15:24.645Z,2.20
2023-05-10T21:17:51.706Z,2.13
2023-05-10T21:20:18.768Z,2.25
2023-05-10T21:22:45.710Z,2.28
2023-05-10T21:27:39.312Z,2.30
2023-05-10T21:30:06.847Z,2.20
2023-05-10T21:37:27.721Z,2.47
2023-05-10T21:39:54.470Z,2.10
2023-05-10T21:42:21.137Z,2.40
2023-05-10T21:44:47.881Z,1.98
2023-05-10T21:47:14.551Z,2.00
2023-05-10T21:52:08.217Z,2.22
2023-05-10T21:54:35.195Z,2.10
2023-05-10T21:57:02.285Z,2.25
2023-05-10T21:59:28.917Z,2.58
2023-05-10T22:01:55.612Z,2.80
2023-05-10T22:09:16.636Z,2.53
2023-05-10T22:14:10.210Z,2.42
2023-05-10T22:16:36.897Z,2.40
2023-05-10T22:19:03.764Z,2.50
2023-05-10T22:21:30.807Z,2.35
2023-05-10T22:23:57.434Z,2.20
2023-05-10T22:28:51.326Z,2.40
2023-05-10T22:33:45.066Z,2.55
2023-05-10T22:38:38.825Z,2.30
2023-05-10T22:41:05.565Z,2.33
2023-05-10T22:45:59.636Z,3.42
2023-05-10T22:48:26.685Z,2.50
2023-05-10T22:53:20.183Z,2.35
2023-05-10T22:58:14.105Z,2.50
2023-05-10T23:00:41.013Z,2.70
2023-05-10T23:03:07.787Z,2.70
2023-05-10T23:05:34.394Z,2.70
2023-05-10T23:08:01.105Z,2.50
2023-05-10T23:10:28.409Z,2.70
2023-05-10T23:12:56.260Z,2.63
2023-05-10T23:15:22.952Z,2.65
2023-05-10T23:17:49.895Z,2.60
2023-05-10T23:20:17.115Z,2.80
2023-05-10T23:22:44.109Z,2.55
2023-05-10T23:30:04.783Z,2.80
2023-05-10T23:32:31.489Z,2.97
2023-05-10T23:37:25.170Z,2.90
2023-05-10T23:39:52.423Z,2.80
2023-05-10T23:42:19.091Z,5.40
2023-05-10T23:47:13.788Z,3.38
2023-05-10T23:49:42.330Z,2.92
2023-05-10T23:52:09.192Z,3.20
2023-05-10T23:54:35.880Z,3.05
2023-05-10T23:57:03.421Z,3.28
